createdAt,value
2018-02-21T00:01:18.967Z,88.20
2018-02-21T00:03:47.867Z,87.60
2018-02-21T00:06:16.001Z,87.60
2018-02-21T00:08:44.931Z,87.90
2018-02-21T00:11:13.070Z,87.80
2018-02-21T00:13:42.008Z,87.40
2018-02-21T00:16:10.141Z,87.40
2018-02-21T00:18:39.065Z,86.90
2018-02-21T00:21:07.209Z,86.90
2018-02-21T00:23:35.365Z,86.90
2018-02-21T00:26:04.268Z,87.20
2018-02-21T00:28:33.189Z,88.00
2018-02-21T00:31:01.324Z,88.00
2018-02-21T00:33:30.265Z,88.20
2018-02-21T00:35:58.408Z,88.10
2018-02-21T00:38:26.561Z,88.40
2018-02-21T00:40:55.466Z,87.60
2018-02-21T00:43:23.665Z,87.50
2018-02-21T00:45:51.850Z,87.20
2018-02-21T00:48:20.597Z,87.30
2018-02-21T00:50:48.754Z,87.50
2018-02-21T00:53:17.664Z,88.10
2018-02-21T00:55:45.816Z,88.10
2018-02-21T00:58:14.729Z,88.90
2018-02-21T01:00:42.970Z,88.90
2018-02-21T01:03:11.200Z,89.00
2018-02-21T01:05:39.360Z,89.20
2018-02-21T01:08:07.512Z,88.60
2018-02-21T01:10:36.441Z,87.20
2018-02-21T01:13:04.600Z,87.20
2018-02-21T01:15:32.817Z,87.40
2018-02-21T01:18:00.978Z,87.80
2018-02-21T01:20:29.241Z,88.20
2018-02-21T01:22:57.406Z,88.00
2018-02-21T01:25:25.625Z,88.10
2018-02-21T01:27:53.781Z,88.00
2018-02-21T01:30:21.948Z,88.10
2018-02-21T01:32:50.112Z,88.40
2018-02-21T01:35:18.245Z,87.90
2018-02-21T01:37:47.165Z,86.60
2018-02-21T01:40:15.301Z,86.60
2018-02-21T01:42:44.224Z,86.90
2018-02-21T01:45:12.361Z,86.90
2018-02-21T01:47:41.268Z,87.60
2018-02-21T01:50:09.405Z,87.50
2018-02-21T01:52:37.553Z,87.70
2018-02-21T01:55:05.694Z,87.50
2018-02-21T01:57:33.856Z,87.70
2018-02-21T02:00:02.008Z,87.80
2018-02-21T02:02:30.160Z,89.40
2018-02-21T02:04:58.297Z,89.40
2018-02-21T02:07:26.449Z,88.70
2018-02-21T02:09:54.594Z,89.00
2018-02-21T02:12:22.758Z,88.40
2018-02-21T02:14:50.905Z,88.20
2018-02-21T02:17:19.132Z,88.20
2018-02-21T02:19:48.036Z,88.20
2018-02-21T02:22:16.198Z,88.20
2018-02-21T02:24:45.114Z,88.70
2018-02-21T02:27:13.288Z,88.70
2018-02-21T02:29:41.441Z,89.10
2018-02-21T02:32:10.342Z,89.00
2018-02-21T02:34:38.504Z,88.90
2018-02-21T02:37:06.644Z,88.20
2018-02-21T02:39:51.540Z,88.00
2018-02-21T02:42:19.686Z,88.50
2018-02-21T02:44:47.842Z,89.10
2018-02-21T02:47:15.987Z,89.30
2018-02-21T02:49:44.149Z,89.00
2018-02-21T02:52:12.288Z,89.20
2018-02-21T02:54:41.218Z,89.80
2018-02-21T02:57:09.355Z,89.40
2018-02-21T02:59:37.545Z,89.30
2018-02-21T03:02:06.448Z,88.90
2018-02-21T03:04:34.600Z,88.90
2018-02-21T03:07:03.505Z,89.10
2018-02-21T03:09:31.668Z,89.00
2018-02-21T03:11:59.800Z,89.20
2018-02-21T03:14:27.941Z,90.00
2018-02-21T03:16:56.101Z,90.20
2018-02-21T03:19:24.244Z,90.00
2018-02-21T03:21:53.179Z,90.60
2018-02-21T03:24:21.333Z,90.60
2018-02-21T03:26:49.492Z,90.50
2018-02-21T03:29:18.413Z,90.30
2018-02-21T03:31:46.573Z,90.30
2018-02-21T03:34:14.717Z,90.30
2018-02-21T03:36:42.878Z,88.40
2018-02-21T03:39:11.026Z,88.90
2018-02-21T03:41:39.186Z,88.80
2018-02-21T03:44:07.329Z,89.40
2018-02-21T03:46:36.257Z,89.70
2018-02-21T03:49:04.398Z,89.70
2018-02-21T03:51:32.572Z,90.10
2018-02-21T03:54:00.717Z,90.30
2018-02-21T03:56:28.877Z,90.20
2018-02-21T03:58:57.015Z,90.20
2018-02-21T04:01:25.192Z,90.10
2018-02-21T04:03:53.335Z,89.30
2018-02-21T04:06:21.490Z,88.20
2018-02-21T04:08:50.422Z,87.40
2018-02-21T04:11:18.589Z,87.40
2018-02-21T04:13:46.744Z,87.70
2018-02-21T04:16:15.652Z,87.50
2018-02-21T04:18:43.808Z,87.50
2018-02-21T04:21:12.722Z,85.90
2018-02-21T04:23:40.905Z,85.80
2018-02-21T04:26:09.049Z,84.70
2018-02-21T04:28:37.217Z,84.30
2018-02-21T04:31:05.365Z,83.90
2018-02-21T04:33:33.526Z,83.40
2018-02-21T04:36:01.666Z,83.10
2018-02-21T04:38:29.829Z,83.20
2018-02-21T04:40:57.969Z,83.10
2018-02-21T04:43:26.897Z,83.50
2018-02-21T04:45:55.093Z,83.40
2018-02-21T04:48:23.245Z,83.40
2018-02-21T04:50:51.384Z,83.40
2018-02-21T04:53:20.313Z,83.40
2018-02-21T04:59:00.272Z,83.70
2018-02-21T05:01:28.420Z,82.80
2018-02-21T05:03:57.353Z,82.70
2018-02-21T05:06:25.519Z,82.70
2018-02-21T05:08:53.728Z,83.30
2018-02-21T05:11:21.896Z,83.80
2018-02-21T05:13:50.032Z,84.20
2018-02-21T05:16:18.190Z,84.30
2018-02-21T05:18:46.334Z,84.90
2018-02-21T05:21:14.502Z,85.10
2018-02-21T05:23:42.646Z,85.30
2018-02-21T05:26:10.801Z,85.60
2018-02-21T05:28:38.941Z,86.30
2018-02-21T05:31:07.888Z,86.80
2018-02-21T05:33:36.027Z,86.80
2018-02-21T05:36:04.202Z,86.90
2018-02-21T05:38:32.336Z,87.00
2018-02-21T05:41:00.506Z,87.60
2018-02-21T05:43:28.646Z,87.70
2018-02-21T05:45:56.862Z,87.60
2018-02-21T05:48:24.978Z,87.60
2018-02-21T05:50:53.132Z,88.10
2018-02-21T05:53:21.264Z,88.10
2018-02-21T05:55:49.429Z,87.90
2018-02-21T05:58:17.565Z,88.10
2018-02-21T06:00:45.724Z,88.30
2018-02-21T06:03:13.880Z,88.10
2018-02-21T06:05:42.569Z,87.50
2018-02-21T06:08:10.730Z,87.50
2018-02-21T06:10:39.641Z,87.50
2018-02-21T06:13:07.816Z,87.50
2018-02-21T06:15:36.725Z,87.80
2018-02-21T06:18:04.880Z,87.80
2018-02-21T06:20:33.782Z,87.70
2018-02-21T06:23:01.937Z,87.70
2018-02-21T06:25:30.072Z,87.80
2018-02-21T06:27:58.225Z,87.90
2018-02-21T06:30:26.364Z,87.90
2018-02-21T06:32:55.287Z,87.80
2018-02-21T06:35:23.455Z,87.80
2018-02-21T06:37:51.616Z,87.60
2018-02-21T06:40:19.752Z,87.50
2018-02-21T06:42:47.901Z,87.10
2018-02-21T06:45:16.029Z,87.50
2018-02-21T06:47:44.188Z,87.30
2018-02-21T06:50:13.093Z,87.00
2018-02-21T06:52:41.260Z,87.00
2018-02-21T06:55:09.407Z,87.10
2018-02-21T06:57:38.321Z,87.40
2018-02-21T07:00:07.236Z,86.60
2018-02-21T07:02:36.168Z,86.60
2018-02-21T07:05:04.316Z,85.80
2018-02-21T07:07:32.453Z,85.00
2018-02-21T07:10:00.622Z,85.20
2018-02-21T07:12:29.524Z,85.70
2018-02-21T07:14:57.685Z,85.60
2018-02-21T07:17:25.848Z,85.50
2018-02-21T07:19:54.785Z,85.00
2018-02-21T07:22:22.928Z,85.00
2018-02-21T07:24:51.101Z,84.90
2018-02-21T07:27:19.241Z,84.40
2018-02-21T07:29:47.405Z,84.30
2018-02-21T07:32:15.556Z,83.80
2018-02-21T07:34:43.725Z,83.80
2018-02-21T07:37:11.921Z,83.30
2018-02-21T07:39:40.167Z,82.70
2018-02-21T07:42:08.362Z,81.80
2018-02-21T07:44:36.626Z,81.10
2018-02-21T07:47:04.840Z,80.50
2018-02-21T07:49:33.780Z,80.20
2018-02-21T07:52:02.036Z,80.10
2018-02-21T07:54:30.202Z,79.70
2018-02-21T07:56:58.422Z,79.00
2018-02-21T07:59:26.591Z,78.70
2018-02-21T08:01:54.732Z,76.90
2018-02-21T08:04:22.893Z,75.80
2018-02-21T08:06:51.825Z,74.60
2018-02-21T08:09:19.966Z,74.60
2018-02-21T08:11:48.141Z,74.20
2018-02-21T08:14:16.283Z,73.60
2018-02-21T08:16:45.213Z,72.50
2018-02-21T08:19:13.415Z,72.50
2018-02-21T08:21:42.545Z,72.50
2018-02-21T08:24:10.685Z,72.20
2018-02-21T08:26:39.785Z,70.90
2018-02-21T08:29:07.943Z,70.30
2018-02-21T08:31:36.103Z,69.70
2018-02-21T08:34:04.245Z,69.00
2018-02-21T08:36:33.163Z,67.30
2018-02-21T08:39:01.333Z,67.30
2018-02-21T08:41:29.465Z,67.00
2018-02-21T08:43:57.616Z,66.60
2018-02-21T08:46:25.740Z,65.60
2018-02-21T08:48:53.889Z,65.50
2018-02-21T08:51:22.012Z,66.10
2018-02-21T08:53:50.161Z,64.00
2018-02-21T08:56:18.302Z,63.70
2018-02-21T08:58:46.467Z,63.50
2018-02-21T09:01:14.599Z,63.80
2018-02-21T09:03:42.741Z,64.90
2018-02-21T09:06:12.549Z,63.10
2018-02-21T09:08:41.459Z,62.90
2018-02-21T09:11:09.592Z,62.90
2018-02-21T09:13:37.741Z,60.80
2018-02-21T09:16:05.937Z,60.30
2018-02-21T09:18:34.096Z,61.10
2018-02-21T09:21:02.228Z,60.50
2018-02-21T09:23:30.377Z,59.40
2018-02-21T09:25:59.286Z,59.00
2018-02-21T09:28:27.441Z,59.10
2018-02-21T09:30:56.340Z,58.30
2018-02-21T09:33:25.320Z,57.60
2018-02-21T09:35:57.525Z,57.80
2018-02-21T09:38:25.688Z,57.20
2018-02-21T09:40:53.821Z,57.50
2018-02-21T09:43:21.949Z,57.10
2018-02-21T09:45:50.097Z,55.80
2018-02-21T09:48:18.234Z,56.70
2018-02-21T09:50:46.380Z,56.60
2018-02-21T09:53:14.510Z,54.40
2018-02-21T09:55:42.702Z,55.10
2018-02-21T09:58:11.597Z,54.20
2018-02-21T10:00:40.513Z,54.10
2018-02-21T10:03:08.645Z,54.10
2018-02-21T10:05:36.793Z,54.40
2018-02-21T10:08:04.957Z,53.30
2018-02-21T10:10:33.105Z,53.40
2018-02-21T10:13:01.233Z,52.10
2018-02-21T10:15:29.377Z,52.40
2018-02-21T10:17:57.508Z,52.40
2018-02-21T10:20:25.682Z,52.50
2018-02-21T10:22:53.805Z,50.30
2018-02-21T10:25:22.712Z,48.40
2018-02-21T10:27:51.605Z,49.40
2018-02-21T10:30:19.753Z,49.30
2018-02-21T10:32:47.900Z,47.40
2018-02-21T10:35:16.028Z,47.10
2018-02-21T10:37:44.180Z,47.80
2018-02-21T10:40:13.081Z,44.10
2018-02-21T10:42:41.992Z,44.10
2018-02-21T10:45:10.125Z,44.10
2018-02-21T10:47:38.281Z,42.60
2018-02-21T10:50:06.409Z,42.30
2018-02-21T10:52:34.558Z,40.90
2018-02-21T10:55:03.492Z,40.60
2018-02-21T10:57:31.675Z,40.60
2018-02-21T10:59:59.821Z,42.60
2018-02-21T11:02:27.973Z,42.20
2018-02-21T11:04:56.934Z,40.20
2018-02-21T11:07:25.033Z,40.20
2018-02-21T11:09:53.934Z,40.10
2018-02-21T11:12:22.094Z,40.10
2018-02-21T11:14:50.988Z,39.40
2018-02-21T11:17:19.145Z,39.30
2018-02-21T11:19:48.056Z,38.70
2018-02-21T11:22:16.222Z,38.70
2018-02-21T11:24:48.367Z,38.60
2018-02-21T11:27:16.542Z,38.60
2018-02-21T11:29:44.678Z,37.40
2018-02-21T11:32:12.818Z,35.60
2018-02-21T11:34:40.977Z,35.80
2018-02-21T11:37:09.886Z,35.90
2018-02-21T11:39:38.036Z,35.90
2018-02-21T11:42:06.958Z,34.40
2018-02-21T11:44:35.121Z,34.40
2018-02-21T11:47:03.288Z,34.10
2018-02-21T11:49:32.214Z,30.90
2018-02-21T11:52:00.386Z,30.90
2018-02-21T11:54:28.658Z,30.00
2018-02-21T11:56:56.834Z,30.70
2018-02-21T11:59:25.018Z,30.30
2018-02-21T12:01:53.161Z,30.30
2018-02-21T12:04:21.322Z,29.60
2018-02-21T12:06:50.224Z,29.00
2018-02-21T12:09:18.411Z,28.90
2018-02-21T12:11:46.563Z,27.30
2018-02-21T12:14:14.727Z,28.20
2018-02-21T12:16:43.655Z,27.70
2018-02-21T12:19:11.817Z,27.60
2018-02-21T12:21:40.004Z,28.10
2018-02-21T12:24:08.170Z,27.10
2018-02-21T12:26:36.317Z,27.60
2018-02-21T12:29:05.241Z,26.10
2018-02-21T12:31:33.380Z,26.00
2018-02-21T12:34:01.549Z,25.70
2018-02-21T12:36:30.469Z,25.20
2018-02-21T12:39:04.126Z,25.10
2018-02-21T12:41:37.850Z,24.50
2018-02-21T12:44:06.817Z,24.30
2018-02-21T12:46:35.038Z,24.20
2018-02-21T12:49:11.160Z,23.70
2018-02-21T12:51:40.079Z,25.00
2018-02-21T12:54:08.220Z,24.90
2018-02-21T12:56:36.380Z,24.90
2018-02-21T12:59:04.552Z,23.70
2018-02-21T13:01:32.770Z,23.80
2018-02-21T13:04:01.755Z,23.30
2018-02-21T13:06:30.431Z,23.30
2018-02-21T13:08:59.332Z,23.40
2018-02-21T13:11:28.981Z,23.50
2018-02-21T13:13:57.218Z,23.50
2018-02-21T13:16:25.348Z,23.20
2018-02-21T13:18:53.485Z,22.70
2018-02-21T13:21:22.466Z,22.20
2018-02-21T13:23:50.604Z,21.20
2018-02-21T13:26:22.332Z,22.30
2018-02-21T13:28:50.465Z,22.60
2018-02-21T13:31:18.853Z,21.60
2018-02-21T13:33:46.989Z,21.50
2018-02-21T13:36:38.238Z,21.50
2018-02-21T13:39:06.373Z,21.50
2018-02-21T13:41:34.532Z,21.10
2018-02-21T13:44:02.682Z,21.10
2018-02-21T13:46:39.255Z,22.30
2018-02-21T13:49:07.388Z,21.40
2018-02-21T13:51:35.561Z,21.70
2018-02-21T13:54:03.813Z,22.30
2018-02-21T13:56:31.964Z,21.90
2018-02-21T13:59:00.122Z,21.90
2018-02-21T14:01:28.260Z,21.10
2018-02-21T14:03:56.503Z,21.30
2018-02-21T14:06:24.688Z,21.80
2018-02-21T14:08:53.628Z,21.50
2018-02-21T14:11:21.773Z,21.40
2018-02-21T14:13:49.928Z,21.40
2018-02-21T14:16:22.340Z,21.20
2018-02-21T14:18:50.497Z,21.20
2018-02-21T14:21:18.637Z,21.90
2018-02-21T14:23:47.567Z,21.30
2018-02-21T14:26:18.928Z,21.20
2018-02-21T14:28:48.504Z,23.10
2018-02-21T14:31:17.514Z,24.80
2018-02-21T14:33:46.440Z,24.20
2018-02-21T14:36:14.586Z,24.10
2018-02-21T14:38:42.944Z,23.20
2018-02-21T14:41:11.117Z,23.10
2018-02-21T14:43:39.273Z,23.30
2018-02-21T14:46:08.185Z,23.20
2018-02-21T14:48:36.381Z,23.10
2018-02-21T14:51:04.525Z,23.70
2018-02-21T14:53:32.665Z,23.90
2018-02-21T14:56:00.835Z,24.20
2018-02-21T14:58:29.761Z,24.60
2018-02-21T15:00:57.929Z,26.20
2018-02-21T15:03:26.853Z,25.10
2018-02-21T15:05:59.968Z,25.00
2018-02-21T15:08:28.161Z,25.50
2018-02-21T15:10:56.333Z,25.40
2018-02-21T15:13:24.486Z,25.40
2018-02-21T15:15:52.662Z,25.00
2018-02-21T15:18:20.863Z,25.80
2018-02-21T15:20:49.877Z,27.00
2018-02-21T15:23:18.059Z,27.00
2018-02-21T15:25:46.273Z,26.60
2018-02-21T15:28:14.514Z,26.60
2018-02-21T15:30:42.770Z,27.30
2018-02-21T15:33:11.739Z,26.90
2018-02-21T15:35:43.961Z,26.30
2018-02-21T15:38:12.895Z,26.60
2018-02-21T15:40:41.147Z,26.60
2018-02-21T15:43:09.351Z,27.30
2018-02-21T15:45:38.282Z,27.40
2018-02-21T15:48:06.445Z,27.30
2018-02-21T15:50:34.585Z,28.00
2018-02-21T15:53:02.733Z,29.50
2018-02-21T15:55:30.921Z,30.20
2018-02-21T15:57:59.069Z,31.80
2018-02-21T16:00:27.203Z,33.70
2018-02-21T16:02:56.125Z,35.80
2018-02-21T16:05:24.269Z,35.80
2018-02-21T16:07:52.422Z,36.60
2018-02-21T16:10:21.329Z,39.90
2018-02-21T16:12:49.473Z,39.70
2018-02-21T16:15:17.599Z,40.20
2018-02-21T16:17:45.748Z,41.70
2018-02-21T16:20:14.645Z,43.90
2018-02-21T16:22:42.801Z,43.90
2018-02-21T16:25:11.702Z,44.80
2018-02-21T16:27:39.833Z,44.80
2018-02-21T16:30:07.976Z,45.30
2018-02-21T16:32:36.106Z,45.90
2018-02-21T16:35:05.017Z,46.20
2018-02-21T16:37:33.169Z,46.20
2018-02-21T16:40:02.084Z,46.90
2018-02-21T16:42:30.221Z,46.80
2018-02-21T16:44:58.369Z,46.40
2018-02-21T16:47:26.501Z,47.40
2018-02-21T16:49:54.655Z,47.60
2018-02-21T16:52:22.796Z,47.70
2018-02-21T16:54:50.943Z,48.40
2018-02-21T16:57:19.069Z,48.80
2018-02-21T16:59:47.225Z,48.20
2018-02-21T17:02:15.358Z,48.60
2018-02-21T17:04:43.532Z,48.30
2018-02-21T17:07:11.669Z,47.80
2018-02-21T17:09:40.590Z,47.60
2018-02-21T17:12:08.716Z,47.50
2018-02-21T17:14:36.886Z,48.00
2018-02-21T17:17:05.021Z,47.80
2018-02-21T17:19:33.160Z,47.80
2018-02-21T17:22:01.318Z,48.60
2018-02-21T17:24:30.217Z,49.00
2018-02-21T17:26:59.140Z,49.50
2018-02-21T17:29:27.268Z,49.50
2018-02-21T17:31:56.179Z,50.20
2018-02-21T17:34:24.305Z,50.20
2018-02-21T17:36:52.462Z,50.50
2018-02-21T17:39:20.596Z,50.80
2018-02-21T17:41:49.512Z,51.70
2018-02-21T17:44:17.633Z,51.60
2018-02-21T17:46:46.553Z,52.50
2018-02-21T17:49:14.677Z,52.50
2018-02-21T17:51:42.824Z,52.40
2018-02-21T17:54:10.949Z,52.50
2018-02-21T17:56:39.868Z,53.10
2018-02-21T17:59:08.001Z,53.00
2018-02-21T18:01:36.157Z,53.00
2018-02-21T18:04:04.312Z,53.50
2018-02-21T18:06:32.473Z,53.60
2018-02-21T18:09:00.600Z,53.90
2018-02-21T18:11:28.732Z,53.80
2018-02-21T18:13:56.885Z,54.10
2018-02-21T18:16:25.037Z,54.40
2018-02-21T18:18:53.196Z,54.50
2018-02-21T18:21:27.717Z,55.00
2018-02-21T18:23:55.867Z,54.80
2018-02-21T18:26:24.000Z,54.80
2018-02-21T18:28:52.165Z,55.10
2018-02-21T18:31:20.312Z,55.10
2018-02-21T18:33:50.155Z,55.90
2018-02-21T18:36:18.333Z,55.90
2018-02-21T18:38:47.226Z,56.10
2018-02-21T18:41:15.356Z,56.20
2018-02-21T18:43:43.517Z,56.10
2018-02-21T18:46:11.653Z,56.20
2018-02-21T18:48:39.801Z,56.20
2018-02-21T18:51:07.936Z,56.60
2018-02-21T18:53:36.097Z,56.60
2018-02-21T18:56:04.237Z,56.60
2018-02-21T18:58:32.421Z,56.60
2018-02-21T19:01:00.704Z,57.10
2018-02-21T19:03:28.917Z,56.90
2018-02-21T19:05:57.112Z,57.10
2018-02-21T19:08:25.369Z,57.20
2018-02-21T19:10:54.358Z,57.30
2018-02-21T19:13:22.577Z,57.30
2018-02-21T19:15:50.838Z,57.40
2018-02-21T19:18:19.009Z,57.70
2018-02-21T19:20:47.223Z,57.50
2018-02-21T19:23:15.393Z,57.60
2018-02-21T19:25:43.674Z,57.70
2018-02-21T19:28:11.850Z,58.00
2018-02-21T19:30:40.060Z,57.70
2018-02-21T19:33:09.000Z,57.50
2018-02-21T19:35:37.258Z,57.50
2018-02-21T19:38:05.429Z,57.40
2018-02-21T19:40:33.628Z,57.60
2018-02-21T19:43:01.775Z,57.40
2018-02-21T19:45:29.939Z,57.60
2018-02-21T19:47:58.841Z,57.90
2018-02-21T19:50:27.004Z,57.90
2018-02-21T19:52:55.141Z,57.90
2018-02-21T19:55:23.320Z,58.00
2018-02-21T19:57:51.472Z,57.80
2018-02-21T20:00:19.604Z,57.80
2018-02-21T20:02:47.766Z,58.00
2018-02-21T20:05:15.920Z,58.00
2018-02-21T20:07:44.846Z,58.20
2018-02-21T20:10:12.998Z,58.20
2018-02-21T20:12:41.932Z,58.20
2018-02-21T20:15:10.069Z,58.20
2018-02-21T20:17:38.984Z,58.80
2018-02-21T20:20:07.120Z,58.80
2018-02-21T20:22:36.044Z,58.70
2018-02-21T20:25:04.177Z,58.70
2018-02-21T20:27:32.344Z,58.80
2018-02-21T20:30:00.494Z,58.70
2018-02-21T20:32:28.648Z,58.70
2018-02-21T20:34:56.793Z,59.00
2018-02-21T20:37:24.958Z,58.80
2018-02-21T20:39:53.092Z,59.10
2018-02-21T20:42:21.244Z,58.80
2018-02-21T20:44:49.377Z,58.90
2018-02-21T20:47:18.316Z,59.10
2018-02-21T20:49:46.452Z,59.10
2018-02-21T20:52:14.589Z,59.20
2018-02-21T20:54:42.747Z,59.70
2018-02-21T20:57:10.888Z,59.60
2018-02-21T20:59:39.049Z,59.90
2018-02-21T21:02:07.181Z,60.00
2018-02-21T21:04:35.337Z,60.50
2018-02-21T21:07:03.473Z,60.30
2018-02-21T21:09:31.629Z,60.30
2018-02-21T21:11:59.798Z,60.60
2018-02-21T21:14:28.726Z,60.60
2018-02-21T21:16:56.903Z,60.50
2018-02-21T21:19:25.028Z,60.60
2018-02-21T21:21:53.933Z,60.40
2018-02-21T21:24:22.096Z,59.90
2018-02-21T21:26:51.005Z,61.50
2018-02-21T21:29:19.985Z,61.40
2018-02-21T21:31:48.171Z,61.40
2018-02-21T21:34:17.076Z,61.70
2018-02-21T21:36:45.218Z,61.70
2018-02-21T21:39:14.191Z,62.50
2018-02-21T21:41:42.301Z,63.20
2018-02-21T21:44:10.448Z,62.90
2018-02-21T21:46:39.360Z,63.80
2018-02-21T21:49:07.492Z,63.70
2018-02-21T21:51:35.644Z,63.30
2018-02-21T21:54:03.777Z,63.30
2018-02-21T21:56:31.944Z,63.80
2018-02-21T21:59:00.086Z,64.20
2018-02-21T22:01:28.245Z,64.30
2018-02-21T22:03:56.380Z,64.80
2018-02-21T22:06:24.541Z,64.90
2018-02-21T22:08:52.685Z,64.90
2018-02-21T22:11:20.845Z,65.00
2018-02-21T22:13:48.988Z,65.10
2018-02-21T22:16:17.140Z,65.30
2018-02-21T22:18:45.293Z,65.10
2018-02-21T22:21:13.473Z,65.70
2018-02-21T22:23:41.616Z,66.10
2018-02-21T22:26:10.556Z,66.10
2018-02-21T22:28:38.692Z,66.10
2018-02-21T22:31:07.613Z,67.30
2018-02-21T22:33:35.752Z,67.20
2018-02-21T22:36:04.708Z,66.70
2018-02-21T22:38:32.853Z,66.60
2018-02-21T22:41:00.990Z,66.30
2018-02-21T22:43:29.173Z,66.60
2018-02-21T22:45:57.321Z,66.60
2018-02-21T22:48:25.474Z,66.70
2018-02-21T22:50:53.608Z,66.60
2018-02-21T22:53:21.765Z,66.20
2018-02-21T22:55:50.664Z,67.10
2018-02-21T22:58:18.816Z,67.10
2018-02-21T23:00:46.953Z,67.30
2018-02-21T23:03:16.030Z,67.60
2018-02-21T23:05:44.932Z,66.70
2018-02-21T23:08:13.090Z,66.60
2018-02-21T23:10:41.228Z,66.50
2018-02-21T23:13:10.148Z,66.70
2018-02-21T23:15:38.286Z,66.70
2018-02-21T23:18:07.208Z,66.30
2018-02-21T23:20:35.365Z,66.10
2018-02-21T23:23:03.505Z,65.80
2018-02-21T23:25:31.676Z,66.40
2018-02-21T23:27:59.810Z,65.30
2018-02-21T23:30:28.735Z,65.60
2018-02-21T23:32:56.877Z,65.50
2018-02-21T23:35:25.029Z,65.80
2018-02-21T23:37:53.168Z,65.50
2018-02-21T23:40:21.328Z,65.40
2018-02-21T23:42:49.464Z,65.50
2018-02-21T23:45:17.629Z,65.30
2018-02-21T23:47:45.777Z,65.10
2018-02-21T23:50:14.696Z,65.20
2018-02-21T23:52:42.832Z,65.10
2018-02-21T23:55:10.988Z,64.80
2018-02-21T23:57:39.128Z,65.00
